Time;durP1;ratioP1;P1;durP2;ratioP2;P2;SDS_P1;SDS_P2;PMS_P1;PMS_P2;Temp;Humidity;BMP_temperature;BMP_pressure;BME280_temperature;BME280_humidity;BME280_pressure;Samples;Min_cycle;Max_cycle;Signal;HPM_P1;HPM_P2
2022/12/03 00:01:52;;;;;;;;;;;15.60;41.70;;;;;;5071370;28;19967;-68
2022/12/03 00:04:18;;;;;;;;;;;15.60;41.70;;;;;;5071144;28;19967;-68
2022/12/03 00:06:43;;;;;;;;;;;15.60;41.70;;;;;;5071599;28;19956;-68
2022/12/03 00:09:09;;;;;;;;;;;15.60;41.70;;;;;;5072492;28;20561;-68
2022/12/03 00:11:34;;;;;;;;;;;15.60;41.70;;;;;;5071139;28;20403;-68
2022/12/03 00:14:00;;;;;;;;;;;15.60;41.70;;;;;;5072353;28;19920;-68
2022/12/03 00:16:25;;;;;;;;;;;15.60;41.80;;;;;;5071039;28;19924;-66
2022/12/03 00:18:51;;;;;;;;;;;15.60;41.80;;;;;;5071160;28;19963;-68
2022/12/03 00:21:16;;;;;;;;;;;15.60;41.90;;;;;;5071026;28;19928;-68
2022/12/03 00:23:42;;;;;;;;;;;15.60;41.90;;;;;;5071129;28;19920;-68
2022/12/03 00:26:08;;;;;;;;;;;15.60;41.90;;;;;;5071478;28;19920;-68
2022/12/03 00:28:33;;;;;;;;;;;15.60;41.90;;;;;;5070923;28;20303;-68
2022/12/03 00:30:59;;;;;;;;;;;15.60;42.60;;;;;;5070865;28;19920;-68
2022/12/03 00:33:24;;;;;;;;;;;15.60;41.90;;;;;;5070282;28;19927;-68
2022/12/03 00:35:50;;;;;;;;;;;15.60;41.90;;;;;;5071178;28;19920;-67
2022/12/03 00:38:15;;;;;;;;;;;15.60;41.90;;;;;;5071431;28;19966;-68
2022/12/03 00:40:41;;;;;;;;;;;15.60;42.00;;;;;;5087914;28;19927;-68
2022/12/03 00:43:06;;;;;;;;;;;15.60;42.10;;;;;;5070478;28;20364;-67
2022/12/03 00:45:32;;;;;;;;;;;15.60;42.00;;;;;;5070979;28;20020;-68
2022/12/03 00:47:57;;;;;;;;;;;15.60;42.00;;;;;;5070968;28;19979;-65
2022/12/03 00:50:23;;;;;;;;;;;15.60;42.00;;;;;;5071063;28;20434;-68
2022/12/03 00:52:48;;;;;;;;;;;15.60;42.00;;;;;;5070814;28;20429;-68
2022/12/03 00:55:14;;;;;;;;;;;15.60;41.90;;;;;;5087882;28;19932;-68
2022/12/03 00:57:40;;;;;;;;;;;15.60;41.90;;;;;;5070989;28;19921;-67
2022/12/03 01:00:06;;;;;;;;;;;15.60;42.00;;;;;;5071013;28;19920;-67
2022/12/03 01:02:32;;;;;;;;;;;15.60;42.00;;;;;;5070609;28;20429;-68
2022/12/03 01:04:57;;;;;;;;;;;15.60;42.00;;;;;;5071874;28;19928;-68
2022/12/03 01:07:23;;;;;;;;;;;15.60;42.00;;;;;;5069914;28;19925;-67
2022/12/03 01:09:48;;;;;;;;;;;15.60;42.10;;;;;;5071852;28;19925;-68
2022/12/03 01:12:14;;;;;;;;;;;15.60;42.00;;;;;;5070787;28;19968;-68
2022/12/03 01:14:40;;;;;;;;;;;15.60;42.00;;;;;;5070577;28;19920;-65
2022/12/03 01:17:05;;;;;;;;;;;15.60;42.00;;;;;;5071681;28;19966;-67
2022/12/03 01:19:32;;;;;;;;;;;15.60;42.10;;;;;;5071755;28;20364;-68
2022/12/03 01:21:58;;;;;;;;;;;15.60;42.10;;;;;;5071841;28;19920;-67
2022/12/03 01:24:23;;;;;;;;;;;15.60;42.10;;;;;;5071834;28;19977;-68
2022/12/03 01:26:49;;;;;;;;;;;15.60;42.40;;;;;;5070399;28;20395;-68
2022/12/03 01:29:15;;;;;;;;;;;15.50;42.10;;;;;;5087025;28;20007;-68
2022/12/03 01:34:26;;;;;;;;;;;15.60;42.10;;;;;;5070506;28;20283;-68
2022/12/03 01:36:51;;;;;;;;;;;15.60;42.20;;;;;;5072331;28;19942;-66
2022/12/03 01:39:17;;;;;;;;;;;15.50;42.10;;;;;;5074542;28;19927;-68
2022/12/03 01:41:43;;;;;;;;;;;15.50;42.10;;;;;;5075124;28;20014;-66
2022/12/03 01:44:14;;;;;;;;;;;15.50;42.20;;;;;;5074081;28;20368;-68
2022/12/03 01:46:40;;;;;;;;;;;15.50;42.30;;;;;;5073824;28;19928;-68
2022/12/03 01:49:08;;;;;;;;;;;15.50;42.30;;;;;;5073631;28;19931;-68
2022/12/03 01:51:33;;;;;;;;;;;15.50;42.20;;;;;;5074976;28;19933;-68
2022/12/03 01:53:59;;;;;;;;;;;15.50;42.30;;;;;;5075157;28;19924;-68
2022/12/03 01:56:25;;;;;;;;;;;15.50;42.30;;;;;;5074976;28;20010;-65
2022/12/03 01:58:50;;;;;;;;;;;15.50;42.30;;;;;;5073488;28;19920;-68
2022/12/03 02:01:17;;;;;;;;;;;15.40;42.30;;;;;;5074752;28;19920;-68
2022/12/03 02:03:43;;;;;;;;;;;15.50;42.30;;;;;;5074639;28;19927;-68
2022/12/03 02:06:14;;;;;;;;;;;15.50;42.40;;;;;;5073788;28;19927;-68
2022/12/03 02:08:40;;;;;;;;;;;15.50;42.40;;;;;;5073400;28;19924;-68
2022/12/03 02:13:55;;;;;;;;;;;15.50;42.30;;;;;;5089782;28;19914;-68
2022/12/03 02:16:21;;;;;;;;;;;15.40;42.30;;;;;;5088095;28;20013;-68
2022/12/03 02:18:47;;;;;;;;;;;15.50;42.40;;;;;;5087672;28;20322;-68
2022/12/03 02:24:14;;;;;;;;;;;15.40;42.40;;;;;;5144866;27;19919;-68
2022/12/03 02:26:39;;;;;;;;;;;15.40;42.40;;;;;;5146670;27;19930;-68
2022/12/03 02:29:05;;;;;;;;;;;15.40;42.40;;;;;;5129284;27;20010;-68
2022/12/03 02:31:31;;;;;;;;;;;15.50;42.40;;;;;;5128734;28;19936;-69
2022/12/03 02:33:56;;;;;;;;;;;15.50;42.40;;;;;;5129168;28;19920;-68
2022/12/03 02:36:22;;;;;;;;;;;15.50;42.40;;;;;;5128709;28;19934;-68
2022/12/03 02:38:48;;;;;;;;;;;15.50;42.40;;;;;;5129073;28;19920;-68
2022/12/03 02:42:33;;;;;;;;;;;15.50;42.40;;;;;;5129096;28;19919;-68
2022/12/03 02:44:01;;;;;;;;;;;15.50;42.40;;;;;;5128957;28;19972;-66
2022/12/03 02:46:27;;;;;;;;;;;15.50;42.20;;;;;;5128477;27;19919;-65
2022/12/03 02:48:53;;;;;;;;;;;15.50;42.10;;;;;;5129267;28;19927;-68
2022/12/03 02:51:18;;;;;;;;;;;15.50;42.00;;;;;;5128533;27;19927;-68
2022/12/03 02:53:46;;;;;;;;;;;15.50;42.70;;;;;;5129968;28;20375;-68
2022/12/03 02:56:13;;;;;;;;;;;15.50;41.80;;;;;;5129161;28;20271;-68
2022/12/03 02:58:39;;;;;;;;;;;15.50;41.80;;;;;;5129595;27;20394;-68
2022/12/03 03:01:05;;;;;;;;;;;15.50;41.80;;;;;;5129828;28;20407;-68
2022/12/03 03:03:31;;;;;;;;;;;15.40;41.80;;;;;;5128754;27;19931;-69
2022/12/03 03:05:57;;;;;;;;;;;15.40;41.80;;;;;;5128642;28;19920;-68
2022/12/03 03:08:23;;;;;;;;;;;15.40;41.70;;;;;;5129944;27;19930;-68
2022/12/03 03:10:49;;;;;;;;;;;15.40;41.80;;;;;;5128566;28;20354;-68
2022/12/03 03:13:15;;;;;;;;;;;15.40;41.80;;;;;;5128892;28;19924;-68
2022/12/03 03:15:41;;;;;;;;;;;15.40;41.80;;;;;;5129889;27;19920;-68
2022/12/03 03:18:07;;;;;;;;;;;15.40;41.70;;;;;;5128773;28;19972;-67
2022/12/03 03:20:33;;;;;;;;;;;15.40;41.70;;;;;;5129661;27;19920;-68
2022/12/03 03:23:16;;;;;;;;;;;15.40;41.60;;;;;;5128117;28;20006;-65
2022/12/03 03:25:44;;;;;;;;;;;15.40;41.60;;;;;;5128346;28;19927;-66
2022/12/03 03:28:10;;;;;;;;;;;15.40;41.60;;;;;;5128322;27;19927;-66
2022/12/03 03:30:37;;;;;;;;;;;15.40;41.60;;;;;;5128255;28;19926;-67
2022/12/03 03:33:03;;;;;;;;;;;15.40;41.60;;;;;;5127368;27;19968;-68
2022/12/03 03:35:28;;;;;;;;;;;15.40;41.60;;;;;;5114117;28;19920;-68
2022/12/03 03:37:55;;;;;;;;;;;15.40;41.60;;;;;;5114340;28;19930;-68
2022/12/03 03:40:21;;;;;;;;;;;15.40;41.60;;;;;;5115659;28;19962;-68
2022/12/03 03:42:47;;;;;;;;;;;15.40;41.60;;;;;;5114317;28;20090;-68
2022/12/03 03:45:12;;;;;;;;;;;15.40;41.60;;;;;;5114385;28;19920;-65
2022/12/03 03:47:38;;;;;;;;;;;15.30;41.60;;;;;;5114182;28;19927;-67
2022/12/03 03:50:04;;;;;;;;;;;15.30;41.60;;;;;;5115532;28;19931;-65
2022/12/03 03:52:30;;;;;;;;;;;15.30;41.70;;;;;;5114337;28;19951;-68
2022/12/03 03:54:56;;;;;;;;;;;15.30;41.70;;;;;;5115426;28;19989;-68
2022/12/03 03:57:21;;;;;;;;;;;15.30;41.70;;;;;;5113991;28;19920;-68
2022/12/03 03:59:47;;;;;;;;;;;15.30;41.70;;;;;;5114285;28;19920;-68
2022/12/03 04:02:20;;;;;;;;;;;15.30;41.80;;;;;;5113869;28;19924;-68
2022/12/03 04:04:46;;;;;;;;;;;15.30;41.80;;;;;;5114213;28;19921;-68
2022/12/03 04:07:12;;;;;;;;;;;15.30;41.90;;;;;;5114106;28;20288;-68
2022/12/03 04:09:37;;;;;;;;;;;15.30;41.90;;;;;;5113868;28;20419;-67
2022/12/03 04:14:48;;;;;;;;;;;15.30;41.90;;;;;;5113516;28;19937;-68
2022/12/03 04:17:14;;;;;;;;;;;15.30;42.00;;;;;;5113587;28;19930;-67
2022/12/03 04:19:39;;;;;;;;;;;15.30;42.00;;;;;;5114932;28;19964;-68
2022/12/03 04:24:50;;;;;;;;;;;15.30;42.00;;;;;;5113404;28;19920;-68
2022/12/03 04:30:01;;;;;;;;;;;15.20;42.10;;;;;;5114563;28;20402;-67
2022/12/03 04:35:43;;;;;;;;;;;15.30;42.10;;;;;;5114360;28;19920;-68
2022/12/03 04:37:58;;;;;;;;;;;15.30;42.10;;;;;;5113323;28;19920;-68
2022/12/03 04:43:12;;;;;;;;;;;15.30;42.10;;;;;;5113000;28;20383;-68
2022/12/03 04:45:38;;;;;;;;;;;15.30;42.10;;;;;;5112148;28;20007;-68
2022/12/03 04:48:03;;;;;;;;;;;15.40;42.10;;;;;;5113032;28;20010;-68
2022/12/03 04:50:29;;;;;;;;;;;15.30;42.00;;;;;;5095993;28;19942;-68
2022/12/03 04:52:54;;;;;;;;;;;15.30;42.00;;;;;;5114278;28;19982;-68
2022/12/03 04:55:20;;;;;;;;;;;15.30;42.00;;;;;;5112890;28;19920;-65
2022/12/03 04:57:45;;;;;;;;;;;15.30;42.00;;;;;;5114072;28;19920;-68
2022/12/03 05:00:11;;;;;;;;;;;15.30;42.00;;;;;;5112714;28;20436;-68
2022/12/03 05:02:37;;;;;;;;;;;15.30;42.00;;;;;;5112732;28;19927;-66
2022/12/03 05:05:02;;;;;;;;;;;15.30;42.00;;;;;;5113906;28;19942;-68
2022/12/03 05:07:28;;;;;;;;;;;15.30;42.00;;;;;;5112960;28;19943;-68
2022/12/03 05:09:53;;;;;;;;;;;15.30;42.00;;;;;;5112596;28;20312;-68
2022/12/03 05:12:19;;;;;;;;;;;15.30;42.00;;;;;;5112537;28;19972;-68
2022/12/03 05:14:44;;;;;;;;;;;15.20;42.00;;;;;;5114046;28;19927;-68
2022/12/03 05:17:10;;;;;;;;;;;15.30;42.10;;;;;;5112469;28;20298;-68
2022/12/03 05:22:21;;;;;;;;;;;15.20;42.00;;;;;;5113202;28;19924;-68
2022/12/03 05:24:46;;;;;;;;;;;15.30;42.00;;;;;;5113577;28;20412;-68
2022/12/03 05:27:12;;;;;;;;;;;15.30;42.00;;;;;;5112324;28;19920;-68
2022/12/03 05:29:37;;;;;;;;;;;15.30;41.90;;;;;;5112458;28;19923;-68
2022/12/03 05:32:05;;;;;;;;;;;15.30;42.80;;;;;;5113559;28;20380;-68
2022/12/03 05:34:31;;;;;;;;;;;15.30;42.00;;;;;;5112209;28;19919;-68
2022/12/03 05:36:56;;;;;;;;;;;15.30;42.00;;;;;;5113317;28;19920;-68
2022/12/03 05:39:22;;;;;;;;;;;15.30;42.00;;;;;;5111767;28;20454;-68
2022/12/03 05:44:33;;;;;;;;;;;15.30;42.00;;;;;;5113215;28;19927;-68
2022/12/03 05:46:58;;;;;;;;;;;15.30;42.10;;;;;;5113199;28;20287;-68
2022/12/03 05:49:24;;;;;;;;;;;15.20;42.00;;;;;;5111985;28;19924;-68
2022/12/03 05:51:49;;;;;;;;;;;15.20;42.00;;;;;;5113032;27;19920;-68
2022/12/03 05:54:15;;;;;;;;;;;15.20;41.90;;;;;;5113092;28;19927;-67
2022/12/03 05:56:40;;;;;;;;;;;15.20;42.00;;;;;;5111543;28;19972;-68
2022/12/03 05:59:06;;;;;;;;;;;15.20;42.00;;;;;;5111791;28;19926;-68
2022/12/03 06:01:32;;;;;;;;;;;15.20;41.90;;;;;;5111920;28;19920;-68
2022/12/03 06:03:57;;;;;;;;;;;15.20;42.00;;;;;;5111735;28;19920;-65
2022/12/03 06:06:23;;;;;;;;;;;15.20;42.00;;;;;;5111985;28;19927;-68
2022/12/03 06:08:48;;;;;;;;;;;15.30;42.00;;;;;;5113032;28;19920;-68
2022/12/03 06:11:14;;;;;;;;;;;15.20;42.00;;;;;;5112096;28;20436;-66
2022/12/03 06:13:39;;;;;;;;;;;15.20;42.00;;;;;;5112745;28;19924;-68
2022/12/03 06:16:05;;;;;;;;;;;15.20;42.00;;;;;;5112764;28;19965;-68
2022/12/03 06:18:30;;;;;;;;;;;15.30;42.00;;;;;;5111600;28;19946;-66
2022/12/03 06:20:56;;;;;;;;;;;15.20;42.00;;;;;;5111943;28;19973;-68
2022/12/03 06:23:22;;;;;;;;;;;15.20;42.10;;;;;;5112292;28;20317;-68
2022/12/03 06:25:47;;;;;;;;;;;15.20;42.00;;;;;;5112710;28;19927;-68
2022/12/03 06:28:13;;;;;;;;;;;15.20;42.10;;;;;;5112635;28;20278;-68
2022/12/03 06:30:38;;;;;;;;;;;15.20;41.90;;;;;;5111497;28;19927;-68
2022/12/03 06:33:04;;;;;;;;;;;15.20;41.90;;;;;;5111360;28;19931;-68
2022/12/03 06:35:30;;;;;;;;;;;15.20;41.80;;;;;;5110869;28;19920;-68
2022/12/03 06:37:55;;;;;;;;;;;15.20;41.70;;;;;;5112127;28;20406;-68
2022/12/03 06:40:23;;;;;;;;;;;15.20;41.60;;;;;;5110981;28;20388;-69
2022/12/03 06:42:48;;;;;;;;;;;15.20;41.60;;;;;;5112540;28;19931;-68
2022/12/03 06:45:14;;;;;;;;;;;15.10;41.70;;;;;;5110577;28;19924;-68
2022/12/03 06:47:39;;;;;;;;;;;15.10;41.70;;;;;;5111449;28;19929;-68
2022/12/03 06:50:06;;;;;;;;;;;15.10;41.80;;;;;;5111357;28;20379;-68
2022/12/03 06:52:31;;;;;;;;;;;15.20;41.90;;;;;;5111216;28;20398;-68
2022/12/03 06:54:57;;;;;;;;;;;15.70;41.50;;;;;;5111248;28;19920;-68
2022/12/03 06:57:22;;;;;;;;;;;16.30;40.50;;;;;;5110718;28;19927;-68
2022/12/03 06:59:48;;;;;;;;;;;17.00;39.40;;;;;;5112268;28;19927;-68
2022/12/03 07:02:13;;;;;;;;;;;17.90;37.90;;;;;;5111062;28;20019;-68
2022/12/03 07:04:39;;;;;;;;;;;19.00;36.30;;;;;;5111623;28;20014;-68
2022/12/03 07:07:04;;;;;;;;;;;19.90;34.70;;;;;;5112224;28;19920;-68
2022/12/03 07:09:30;;;;;;;;;;;20.80;33.30;;;;;;5113022;28;19919;-66
2022/12/03 07:11:55;;;;;;;;;;;21.60;32.20;;;;;;5115192;28;19924;-66
2022/12/03 07:14:21;;;;;;;;;;;22.30;31.10;;;;;;5114869;28;19920;-68
2022/12/03 07:16:46;;;;;;;;;;;22.90;30.20;;;;;;5115161;28;19919;-68
2022/12/03 07:19:12;;;;;;;;;;;23.30;29.70;;;;;;5115122;28;19920;-68
2022/12/03 07:21:38;;;;;;;;;;;23.70;29.30;;;;;;5115041;28;20363;-68
2022/12/03 07:24:04;;;;;;;;;;;24.00;29.00;;;;;;5115677;28;20286;-68
2022/12/03 07:26:30;;;;;;;;;;;24.30;28.70;;;;;;5114997;28;19926;-68
2022/12/03 07:28:55;;;;;;;;;;;24.50;28.50;;;;;;5115710;28;19920;-66
2022/12/03 07:31:21;;;;;;;;;;;24.80;28.20;;;;;;5115930;28;20052;-66
2022/12/03 07:33:46;;;;;;;;;;;24.90;28.00;;;;;;5114522;28;20382;-68
2022/12/03 07:36:12;;;;;;;;;;;25.10;27.90;;;;;;5114536;28;19919;-68
2022/12/03 07:38:38;;;;;;;;;;;25.10;27.80;;;;;;5114735;28;19930;-68
2022/12/03 07:41:03;;;;;;;;;;;25.20;27.70;;;;;;5114302;28;19969;-68
2022/12/03 07:43:29;;;;;;;;;;;25.30;27.60;;;;;;5114015;28;19930;-68
2022/12/03 07:45:54;;;;;;;;;;;25.40;27.50;;;;;;5114161;28;19928;-67
2022/12/03 07:48:20;;;;;;;;;;;25.40;27.50;;;;;;5113987;28;19955;-67
2022/12/03 07:50:46;;;;;;;;;;;25.20;27.90;;;;;;5113413;28;19967;-68
2022/12/03 07:53:11;;;;;;;;;;;24.90;28.30;;;;;;5114596;28;19927;-67
2022/12/03 07:55:36;;;;;;;;;;;24.60;28.80;;;;;;5112740;28;19926;-67
2022/12/03 07:58:02;;;;;;;;;;;24.40;29.10;;;;;;5113896;28;19919;-66
2022/12/03 08:00:28;;;;;;;;;;;24.30;29.40;;;;;;5112747;28;19920;-66
2022/12/03 08:02:53;;;;;;;;;;;24.30;29.50;;;;;;5113445;28;20052;-68
2022/12/03 08:05:19;;;;;;;;;;;24.20;29.60;;;;;;5114089;28;20060;-67
2022/12/03 08:07:44;;;;;;;;;;;24.20;29.70;;;;;;5113711;28;19930;-67
2022/12/03 08:10:10;;;;;;;;;;;24.30;29.50;;;;;;5114565;28;19920;-67
2022/12/03 08:12:40;;;;;;;;;;;24.50;29.30;;;;;;5112283;28;19927;-68
2022/12/03 08:18:06;;;;;;;;;;;24.80;28.70;;;;;;5144490;27;19919;-69
2022/12/03 08:20:33;;;;;;;;;;;24.70;28.90;;;;;;5126785;28;20375;-68
2022/12/03 08:23:02;;;;;;;;;;;24.50;29.20;;;;;;5129400;28;19943;-61
2022/12/03 08:25:29;;;;;;;;;;;24.30;29.60;;;;;;5129503;28;20283;-68
2022/12/03 08:28:01;;;;;;;;;;;24.10;30.00;;;;;;5127330;28;20382;-69
2022/12/03 08:30:27;;;;;;;;;;;24.00;30.20;;;;;;5128720;28;19959;-68
2022/12/03 08:32:53;;;;;;;;;;;23.20;30.20;;;;;;5129122;27;20004;-69
2022/12/03 08:35:23;;;;;;;;;;;24.00;30.70;;;;;;5129178;28;19980;-68
2022/12/03 08:37:56;;;;;;;;;;;24.00;30.70;;;;;;5130220;27;19919;-68
2022/12/03 08:40:22;;;;;;;;;;;24.10;30.70;;;;;;5130087;27;20005;-68
2022/12/03 08:42:48;;;;;;;;;;;24.20;30.50;;;;;;5129185;28;20284;-68
2022/12/03 08:48:29;;;;;;;;;;;24.30;30.10;;;;;;5143724;27;20398;-68
2022/12/03 08:50:56;;;;;;;;;;;24.30;30.10;;;;;;5130533;27;20299;-68
2022/12/03 08:53:24;;;;;;;;;;;24.40;30.10;;;;;;5113844;28;19920;-68
2022/12/03 08:55:52;;;;;;;;;;;24.40;30.10;;;;;;5113851;28;19923;-61
2022/12/03 08:58:21;;;;;;;;;;;24.50;30.10;;;;;;5112318;28;20007;-69
2022/12/03 09:00:50;;;;;;;;;;;24.50;29.90;;;;;;5110111;28;20340;-68
2022/12/03 09:03:17;;;;;;;;;;;24.50;29.80;;;;;;5113922;28;19920;-67
2022/12/03 09:05:43;;;;;;;;;;;24.50;29.80;;;;;;5113521;28;19931;-67
2022/12/03 09:08:08;;;;;;;;;;;24.40;29.70;;;;;;5117009;28;20398;-67
2022/12/03 09:10:34;;;;;;;;;;;24.50;29.50;;;;;;5127169;27;20362;-67
2022/12/03 09:12:59;;;;;;;;;;;24.70;29.30;;;;;;5111005;28;20474;-67
2022/12/03 09:15:25;;;;;;;;;;;24.70;29.10;;;;;;5089894;28;19920;-67
2022/12/03 09:17:51;;;;;;;;;;;24.80;28.90;;;;;;5108876;28;19927;-67
2022/12/03 09:20:16;;;;;;;;;;;24.80;28.90;;;;;;5107746;28;19920;-67
2022/12/03 09:22:42;;;;;;;;;;;24.90;28.90;;;;;;5107413;28;19927;-66
2022/12/03 09:25:07;;;;;;;;;;;24.80;28.80;;;;;;5107786;28;19920;-67
2022/12/03 09:27:33;;;;;;;;;;;24.60;28.90;;;;;;5108722;28;19924;-67
2022/12/03 09:29:58;;;;;;;;;;;24.40;29.00;;;;;;5109405;28;19927;-67
2022/12/03 09:32:24;;;;;;;;;;;24.10;29.10;;;;;;5108441;28;19927;-67
2022/12/03 09:34:50;;;;;;;;;;;23.90;29.20;;;;;;5108070;28;19931;-66
2022/12/03 09:37:15;;;;;;;;;;;23.60;29.50;;;;;;5109391;28;19920;-67
2022/12/03 09:39:41;;;;;;;;;;;23.40;29.60;;;;;;5107952;28;20387;-65
2022/12/03 09:42:06;;;;;;;;;;;23.10;29.60;;;;;;5108253;28;19920;-67
2022/12/03 09:44:33;;;;;;;;;;;23.00;29.80;;;;;;5108574;28;19920;-67
2022/12/03 09:47:00;;;;;;;;;;;22.90;30.00;;;;;;5108713;28;20397;-67
2022/12/03 09:49:26;;;;;;;;;;;22.80;30.00;;;;;;5108132;28;19920;-66
2022/12/03 09:51:54;;;;;;;;;;;22.70;30.20;;;;;;5107761;28;20463;-66
2022/12/03 09:54:23;;;;;;;;;;;22.60;30.20;;;;;;5107709;28;19969;-67
2022/12/03 09:56:49;;;;;;;;;;;22.60;30.20;;;;;;5107674;28;20007;-66
2022/12/03 09:59:15;;;;;;;;;;;22.60;30.20;;;;;;5094311;28;19948;-65
2022/12/03 10:01:40;;;;;;;;;;;22.70;30.20;;;;;;5095396;28;19924;-67
2022/12/03 10:04:06;;;;;;;;;;;22.80;30.00;;;;;;5095246;28;19920;-67
2022/12/03 10:06:32;;;;;;;;;;;23.00;29.90;;;;;;5094046;28;20321;-67
2022/12/03 10:08:58;;;;;;;;;;;23.10;29.70;;;;;;5093175;28;20353;-67
2022/12/03 10:11:25;;;;;;;;;;;23.20;29.50;;;;;;5094389;28;19920;-66
2022/12/03 10:13:52;;;;;;;;;;;23.30;29.30;;;;;;5095050;28;20349;-66
2022/12/03 10:16:19;;;;;;;;;;;23.40;29.30;;;;;;5094057;28;19927;-66
2022/12/03 10:18:48;;;;;;;;;;;23.40;29.30;;;;;;5093704;28;19920;-65
2022/12/03 10:21:16;;;;;;;;;;;23.50;29.10;;;;;;5093860;28;20068;-66
2022/12/03 10:23:42;;;;;;;;;;;23.50;29.10;;;;;;5095105;28;19988;-67
2022/12/03 10:26:08;;;;;;;;;;;23.50;29.10;;;;;;5093715;28;19924;-67
2022/12/03 10:28:36;;;;;;;;;;;23.50;29.10;;;;;;5093494;28;20391;-67
2022/12/03 10:31:02;;;;;;;;;;;23.50;29.00;;;;;;5094740;28;19920;-67
2022/12/03 10:33:30;;;;;;;;;;;23.40;28.80;;;;;;5093863;28;19999;-66
2022/12/03 10:35:56;;;;;;;;;;;23.30;28.80;;;;;;5090621;28;19920;-67
2022/12/03 10:38:22;;;;;;;;;;;23.20;28.70;;;;;;5092269;28;20329;-67
2022/12/03 10:40:47;;;;;;;;;;;23.20;28.90;;;;;;5109828;28;19924;-66
2022/12/03 10:43:22;;;;;;;;;;;23.10;29.00;;;;;;5093277;28;20340;-67
2022/12/03 10:45:48;;;;;;;;;;;23.10;29.00;;;;;;5073711;28;19931;-67
2022/12/03 10:48:26;;;;;;;;;;;23.00;29.00;;;;;;5074021;28;20322;-67
2022/12/03 10:50:53;;;;;;;;;;;23.00;28.90;;;;;;5073044;28;19927;-67
2022/12/03 10:53:20;;;;;;;;;;;22.90;29.00;;;;;;5074289;28;19921;-67
2022/12/03 10:55:46;;;;;;;;;;;23.00;29.10;;;;;;5074033;28;19924;-67
2022/12/03 10:58:17;;;;;;;;;;;22.90;29.10;;;;;;5090457;28;19920;-67
2022/12/03 11:00:43;;;;;;;;;;;22.80;29.00;;;;;;5092880;28;19920;-67
2022/12/03 11:03:16;;;;;;;;;;;22.90;29.10;;;;;;5094110;28;19927;-67
2022/12/03 11:05:41;;;;;;;;;;;22.90;29.00;;;;;;5093963;28;20014;-67
2022/12/03 11:08:13;;;;;;;;;;;23.00;28.80;;;;;;5094201;28;20019;-66
2022/12/03 11:10:39;;;;;;;;;;;23.10;28.80;;;;;;5108990;28;20273;-67
2022/12/03 11:13:24;;;;;;;;;;;23.10;28.70;;;;;;5094014;28;19920;-67
2022/12/03 11:15:50;;;;;;;;;;;23.10;28.70;;;;;;5093542;28;19920;-67
2022/12/03 11:18:35;;;;;;;;;;;23.20;28.70;;;;;;5092641;28;20269;-67
2022/12/03 11:29:51;;;;;;;;;;;23.40;28.50;;;;;;4632305;27;15711580;-67
2022/12/03 11:32:36;;;;;;;;;;;23.30;28.40;;;;;;5195262;27;19925;-67
2022/12/03 11:35:03;;;;;;;;;;;23.40;28.50;;;;;;5214192;27;20289;-67
2022/12/03 11:37:28;;;;;;;;;;;23.30;28.40;;;;;;5195716;27;19918;-67
2022/12/03 11:42:48;;;;;;;;;;;23.20;28.50;;;;;;5144161;27;19911;-66
2022/12/03 11:45:33;;;;;;;;;;;23.20;28.60;;;;;;5129643;27;19919;-66
2022/12/03 11:48:02;;;;;;;;;;;23.20;28.60;;;;;;5146757;27;19942;-66
2022/12/03 11:50:29;;;;;;;;;;;23.20;28.60;;;;;;5129475;28;20486;-66
2022/12/03 11:52:58;;;;;;;;;;;23.10;28.60;;;;;;5146549;27;19927;-66
2022/12/03 11:58:25;;;;;;;;;;;23.10;28.70;;;;;;5144818;27;19912;-66
2022/12/03 12:00:52;;;;;;;;;;;23.00;28.60;;;;;;5129535;28;19920;-66
2022/12/03 12:03:20;;;;;;;;;;;23.20;28.80;;;;;;5129603;28;19920;-67
2022/12/03 12:05:45;;;;;;;;;;;23.00;28.80;;;;;;5129404;27;20379;-66
2022/12/03 12:08:17;;;;;;;;;;;23.00;28.70;;;;;;5129205;28;19926;-66
2022/12/03 12:10:44;;;;;;;;;;;23.00;28.70;;;;;;5129362;28;19954;-66
2022/12/03 12:13:26;;;;;;;;;;;23.00;28.60;;;;;;5129102;27;19919;-66
2022/12/03 12:15:51;;;;;;;;;;;23.00;28.60;;;;;;5129386;27;19928;-67
2022/12/03 12:21:46;;;;;;;;;;;23.00;28.50;;;;;;5144777;27;20086;-67
2022/12/03 12:27:07;;;;;;;;;;;23.00;28.40;;;;;;4632727;27;15707329;-67
2022/12/03 12:29:33;;;;;;;;;;;23.10;28.20;;;;;;5194890;27;19918;-67
2022/12/03 12:32:05;;;;;;;;;;;23.00;28.20;;;;;;5214439;27;19941;-67
2022/12/03 12:34:31;;;;;;;;;;;23.00;28.20;;;;;;5195347;27;20002;-67
2022/12/03 12:36:58;;;;;;;;;;;23.00;28.10;;;;;;5195635;27;19969;-67
2022/12/03 12:39:24;;;;;;;;;;;23.00;28.20;;;;;;5195226;27;19925;-66
2022/12/03 12:41:50;;;;;;;;;;;23.00;28.20;;;;;;5195457;27;19922;-66
2022/12/03 12:44:17;;;;;;;;;;;23.00;28.20;;;;;;5195142;27;19918;-67
2022/12/03 12:46:44;;;;;;;;;;;22.90;28.20;;;;;;5214263;27;20281;-66
2022/12/03 12:49:11;;;;;;;;;;;23.00;28.10;;;;;;5195419;27;20381;-66
2022/12/03 12:51:37;;;;;;;;;;;23.00;28.10;;;;;;5195183;27;20392;-68
2022/12/03 12:54:08;;;;;;;;;;;23.00;28.10;;;;;;5214030;27;19922;-66
2022/12/03 12:56:34;;;;;;;;;;;23.00;28.00;;;;;;5194989;27;20013;-67
2022/12/03 12:59:09;;;;;;;;;;;22.90;28.00;;;;;;5194913;27;19950;-66
2022/12/03 13:01:35;;;;;;;;;;;22.90;28.00;;;;;;5195140;27;19918;-67
2022/12/03 13:04:02;;;;;;;;;;;22.90;28.00;;;;;;5195159;27;20353;-66
2022/12/03 13:06:28;;;;;;;;;;;22.80;28.10;;;;;;5194724;27;20206;-66
2022/12/03 13:08:54;;;;;;;;;;;22.90;28.10;;;;;;5206076;27;20397;-66
2022/12/03 13:17:14;;;;;;;;;;;22.90;28.10;;;;;;5144598;27;20375;-66
2022/12/03 13:19:39;;;;;;;;;;;22.90;28.20;;;;;;5129714;27;20291;-67
2022/12/03 13:22:11;;;;;;;;;;;22.80;28.20;;;;;;5129707;28;19923;-65
2022/12/03 13:24:38;;;;;;;;;;;22.80;28.20;;;;;;5129402;27;19928;-67
2022/12/03 13:30:01;;;;;;;;;;;22.90;28.20;;;;;;4634991;27;15708312;-65
2022/12/03 13:32:29;;;;;;;;;;;22.90;28.20;;;;;;5193200;27;20357;-66
2022/12/03 13:35:03;;;;;;;;;;;22.90;28.20;;;;;;5195713;27;19925;-66
2022/12/03 13:37:30;;;;;;;;;;;22.90;28.20;;;;;;5195690;27;19919;-67
2022/12/03 13:39:56;;;;;;;;;;;22.90;28.20;;;;;;5195537;27;19931;-66
2022/12/03 13:48:16;;;;;;;;;;;22.80;28.10;;;;;;5144645;27;19919;-66
2022/12/03 13:50:44;;;;;;;;;;;22.80;28.10;;;;;;5129822;28;19938;-67
2022/12/03 13:56:25;;;;;;;;;;;22.80;28.10;;;;;;5144931;27;19912;-66
2022/12/03 13:58:50;;;;;;;;;;;22.60;28.00;;;;;;5146571;27;19920;-66
2022/12/03 14:01:16;;;;;;;;;;;22.80;28.10;;;;;;5129869;28;19920;-66
2022/12/03 14:03:41;;;;;;;;;;;22.80;28.10;;;;;;5129347;28;20363;-66
2022/12/03 14:06:07;;;;;;;;;;;22.80;28.10;;;;;;5129331;28;19919;-66
2022/12/03 14:08:32;;;;;;;;;;;22.80;28.10;;;;;;5129251;27;19927;-66
2022/12/03 14:10:58;;;;;;;;;;;22.80;28.00;;;;;;5129508;28;19927;-65
2022/12/03 14:13:24;;;;;;;;;;;22.80;28.00;;;;;;5129086;28;20321;-66
2022/12/03 14:15:49;;;;;;;;;;;22.80;28.00;;;;;;5130499;27;19921;-67
2022/12/03 14:18:15;;;;;;;;;;;22.70;28.00;;;;;;5130312;27;19920;-67
2022/12/03 14:20:40;;;;;;;;;;;22.80;28.00;;;;;;5130286;27;19986;-66
2022/12/03 14:23:06;;;;;;;;;;;22.70;28.00;;;;;;5129307;27;20279;-67
2022/12/03 14:25:31;;;;;;;;;;;22.80;28.10;;;;;;5128967;28;19927;-66
2022/12/03 14:27:57;;;;;;;;;;;22.60;28.00;;;;;;5130125;27;19926;-66
2022/12/03 14:30:22;;;;;;;;;;;22.70;28.10;;;;;;5128853;28;20018;-67
2022/12/03 14:32:48;;;;;;;;;;;22.70;28.00;;;;;;5129116;28;19920;-67
2022/12/03 14:35:13;;;;;;;;;;;22.70;28.00;;;;;;5129896;27;19924;-67
2022/12/03 14:37:39;;;;;;;;;;;22.70;28.00;;;;;;5128776;27;19974;-67
2022/12/03 14:40:07;;;;;;;;;;;22.70;28.00;;;;;;5128630;28;20057;-65
2022/12/03 14:42:33;;;;;;;;;;;22.60;28.00;;;;;;5127502;28;20291;-67
2022/12/03 14:45:02;;;;;;;;;;;22.60;27.90;;;;;;5129500;27;19920;-66
2022/12/03 14:47:27;;;;;;;;;;;22.60;28.00;;;;;;5129840;28;19927;-66
2022/12/03 14:49:53;;;;;;;;;;;22.60;28.00;;;;;;5128827;28;19935;-65
2022/12/03 14:52:18;;;;;;;;;;;22.60;28.00;;;;;;5130129;27;20375;-66
2022/12/03 14:54:44;;;;;;;;;;;22.60;28.10;;;;;;5128122;27;19930;-65
2022/12/03 14:57:12;;;;;;;;;;;22.60;28.10;;;;;;5128879;27;20268;-66
2022/12/03 14:59:38;;;;;;;;;;;22.60;28.00;;;;;;5129410;27;19923;-67
2022/12/03 15:02:04;;;;;;;;;;;22.60;28.00;;;;;;5128540;28;20018;-66
2022/12/03 15:04:29;;;;;;;;;;;22.60;28.00;;;;;;5129396;27;20010;-66
2022/12/03 15:06:55;;;;;;;;;;;22.60;28.00;;;;;;5115992;28;20374;-66
2022/12/03 15:09:21;;;;;;;;;;;22.60;28.00;;;;;;5114954;28;19926;-66
2022/12/03 15:11:46;;;;;;;;;;;22.60;28.00;;;;;;5115764;28;19919;-66
2022/12/03 15:14:12;;;;;;;;;;;22.60;28.00;;;;;;5115486;28;19924;-66
2022/12/03 15:16:37;;;;;;;;;;;22.60;28.00;;;;;;5115676;28;19924;-66
2022/12/03 15:19:03;;;;;;;;;;;22.60;28.00;;;;;;5114143;28;19923;-66
2022/12/03 15:21:31;;;;;;;;;;;22.60;28.00;;;;;;5113984;28;19972;-66
2022/12/03 15:23:57;;;;;;;;;;;22.60;28.00;;;;;;5115511;28;19920;-66
2022/12/03 15:26:22;;;;;;;;;;;22.60;28.00;;;;;;5114346;28;19971;-66